Time;durP1;ratioP1;P1;durP2;ratioP2;P2;SDS_P1;SDS_P2;PMS_P1;PMS_P2;Temp;Humidity;BMP_temperature;BMP_pressure;BME280_temperature;BME280_humidity;BME280_pressure;Samples;Min_cycle;Max_cycle;Signal;HPM_P1;HPM_P2
2023/12/11 00:00:47;;;;;;;31.83;5.80;;;;;;;10.76;89.48;99745.16;3606482;39;20067;-64
2023/12/11 00:03:13;;;;;;;30.77;6.40;;;;;;;10.76;88.93;99746.00;3608810;39;20320;-64
2023/12/11 00:05:39;;;;;;;28.25;5.90;;;;;;;10.73;89.45;99735.50;3608960;39;20081;-63
2023/12/11 00:08:05;;;;;;;30.48;6.15;;;;;;;10.28;89.05;99671.03;3607678;39;20143;-65
2023/12/11 00:10:31;;;;;;;37.67;6.25;;;;;;;10.55;89.51;99723.53;3607196;39;20406;-64
2023/12/11 00:12:57;;;;;;;33.15;5.75;;;;;;;10.69;89.47;99747.50;3605361;39;20047;-64
2023/12/11 00:15:23;;;;;;;33.20;6.65;;;;;;;10.70;90.34;99746.50;3606228;39;20055;-65
2023/12/11 00:17:48;;;;;;;26.27;5.63;;;;;;;10.69;90.02;99750.19;3605810;39;20063;-64
2023/12/11 00:20:14;;;;;;;26.52;5.55;;;;;;;10.71;90.70;99748.19;3606476;39;20070;-63
2023/12/11 00:22:39;;;;;;;29.67;5.80;;;;;;;10.69;90.33;99739.41;3605541;39;20063;-64
2023/12/11 00:25:06;;;;;;;34.40;6.65;;;;;;;10.71;89.97;99748.19;3608298;39;20137;-64
2023/12/11 00:27:31;;;;;;;31.67;5.70;;;;;;;10.69;89.76;99737.59;3610285;39;20430;-63
2023/12/11 00:29:59;;;;;;;33.60;6.22;;;;;;;10.69;89.96;99728.66;3611579;39;20054;-64
2023/12/11 00:32:25;;;;;;;34.25;6.85;;;;;;;10.75;89.34;99749.69;3609528;39;20051;-64
2023/12/11 00:34:50;;;;;;;37.80;6.20;;;;;;;10.74;89.24;99742.59;3606448;39;20096;-65
2023/12/11 00:37:17;;;;;;;32.40;5.60;;;;;;;10.69;89.45;99739.41;3605322;39;20056;-64
2023/12/11 00:39:43;;;;;;;38.33;7.00;;;;;;;10.69;89.36;99734.91;3603043;39;20074;-64
2023/12/11 00:42:09;;;;;;;31.70;6.13;;;;;;;10.67;89.76;99731.47;3605246;39;20067;-64
2023/12/11 00:44:37;;;;;;;28.00;5.72;;;;;;;10.67;90.06;99736.84;3603985;39;20326;-65
2023/12/11 00:47:04;;;;;;;26.15;5.78;;;;;;;10.71;90.41;99742.81;3609043;39;20399;-64
2023/12/11 00:49:31;;;;;;;36.28;6.55;;;;;;;10.72;89.99;99743.66;3605528;39;20124;-64
2023/12/11 00:51:57;;;;;;;29.27;5.60;;;;;;;10.77;90.55;99736.97;3605446;39;20059;-65
2023/12/11 00:54:23;;;;;;;34.17;6.53;;;;;;;10.57;90.01;99692.03;3610944;39;20511;-64
2023/12/11 00:56:49;;;;;;;32.38;5.82;;;;;;;10.64;89.40;99699.47;3604607;39;20063;-65
2023/12/11 00:59:15;;;;;;;40.63;6.55;;;;;;;10.88;89.46;99728.06;3607573;39;20384;-64
2023/12/11 01:01:40;;;;;;;27.60;5.75;;;;;;;10.91;89.54;99717.03;3610871;39;20066;-64
2023/12/11 01:04:06;;;;;;;33.67;5.88;;;;;;;10.95;88.98;99718.50;3610933;39;20146;-65
2023/12/11 01:06:32;;;;;;;26.00;5.60;;;;;;;10.95;89.13;99718.50;3607274;39;20537;-64
2023/12/11 01:08:57;;;;;;;32.35;5.90;;;;;;;10.97;89.28;99718.34;3606579;39;20431;-64
2023/12/11 01:11:23;;;;;;;34.58;6.25;;;;;;;10.97;89.32;99729.13;3609701;39;20062;-64
2023/12/11 01:13:49;;;;;;;33.75;6.18;;;;;;;10.99;89.37;99721.78;3608852;39;20125;-63
2023/12/11 01:16:14;;;;;;;36.33;6.07;;;;;;;10.98;89.16;99712.03;3607016;39;20058;-65
2023/12/11 01:18:40;;;;;;;32.17;5.68;;;;;;;10.95;89.12;99701.53;3610062;39;20062;-63
2023/12/11 01:21:06;;;;;;;33.92;6.85;;;;;;;10.97;89.08;99702.22;3608429;39;20062;-65
2023/12/11 01:23:31;;;;;;;31.52;6.00;;;;;;;10.98;89.02;99702.13;3608722;39;20074;-64
2023/12/11 01:25:57;;;;;;;30.00;6.68;;;;;;;11.00;88.25;99707.34;3611534;39;21102;-65
2023/12/11 01:28:22;;;;;;;28.23;6.18;;;;;;;11.04;87.96;99706.16;3609809;39;20050;-62
2023/12/11 01:30:48;;;;;;;34.75;6.35;;;;;;;11.06;87.37;99696.09;3608766;39;20124;-63
2023/12/11 01:33:14;;;;;;;29.88;6.15;;;;;;;11.05;87.65;99689.88;3608902;39;20341;-63
2023/12/11 01:35:39;;;;;;;29.15;6.18;;;;;;;11.06;87.44;99698.78;3608697;39;20212;-64
2023/12/11 01:38:05;;;;;;;29.23;5.68;;;;;;;11.08;87.26;99686.09;3605643;39;20124;-64
2023/12/11 01:40:31;;;;;;;28.27;6.07;;;;;;;11.10;86.34;99676.03;3609598;39;20070;-63
2023/12/11 01:43:14;;;;;;;27.33;5.10;;;;;;;11.15;86.01;99684.59;3608625;39;20060;-64
2023/12/11 01:45:41;;;;;;;30.20;5.50;;;;;;;11.15;85.99;99673.84;3609883;39;20153;-63
2023/12/11 01:48:09;;;;;;;34.33;5.97;;;;;;;11.20;85.78;99687.75;3606470;39;20331;-63
2023/12/11 01:50:36;;;;;;;33.60;5.90;;;;;;;11.21;85.59;99678.69;3599294;39;20339;-64
2023/12/11 01:53:03;;;;;;;29.45;5.25;;;;;;;11.29;84.91;99676.25;3598853;39;20051;-64
2023/12/11 01:55:33;;;;;;;32.40;5.05;;;;;;;11.17;84.78;99653.06;3608991;39;20495;-64
2023/12/11 01:58:02;;;;;;;29.55;5.57;;;;;;;11.36;84.20;99671.19;3608712;39;20047;-64
2023/12/11 02:00:28;;;;;;;25.65;5.13;;;;;;;11.36;84.63;99663.13;3611560;39;20061;-63
2023/12/11 02:02:54;;;;;;;29.67;5.93;;;;;;;11.37;84.55;99652.22;3611881;39;20077;-64
2023/12/11 02:05:20;;;;;;;29.77;5.25;;;;;;;11.38;84.47;99662.03;3609098;39;20050;-63
2023/12/11 02:07:45;;;;;;;24.08;4.93;;;;;;;11.38;84.58;99651.25;3606073;39;20314;-63
2023/12/11 02:10:11;;;;;;;26.52;5.88;;;;;;;11.42;84.09;99635.72;3606633;39;20053;-63
2023/12/11 02:12:39;;;;;;;28.48;5.25;;;;;;;11.41;83.82;99649.28;3606356;39;20063;-63
2023/12/11 02:15:06;;;;;;;28.08;5.57;;;;;;;11.39;84.06;99636.81;3605407;39;20059;-63
2023/12/11 02:17:31;;;;;;;27.73;5.60;;;;;;;11.35;83.96;99642.56;3604409;39;20047;-63
2023/12/11 02:19:57;;;;;;;29.42;6.13;;;;;;;11.33;84.82;99640.03;3605258;39;20055;-64
2023/12/11 02:22:24;;;;;;;30.23;5.45;;;;;;;11.32;84.65;99642.81;3608478;39;20371;-64
2023/12/11 02:25:02;;;;;;;30.00;5.63;;;;;;;11.29;84.64;99641.28;3607270;39;20050;-64
2023/12/11 02:27:29;;;;;;;29.40;5.47;;;;;;;11.22;84.65;99637.34;3608008;39;20107;-63
2023/12/11 02:29:56;;;;;;;28.85;5.32;;;;;;;11.24;84.91;99637.25;3605656;39;20644;-63
2023/12/11 02:32:21;;;;;;;24.67;4.82;;;;;;;11.03;84.84;99604.91;3605603;39;20325;-62
2023/12/11 02:34:48;;;;;;;28.30;5.68;;;;;;;11.22;85.16;99634.66;3606092;39;20277;-63
2023/12/11 02:37:14;;;;;;;28.10;5.35;;;;;;;11.25;84.85;99626.34;3606234;39;20060;-63
2023/12/11 02:39:40;;;;;;;25.00;5.32;;;;;;;11.22;84.62;99625.75;3606997;39;20407;-63
2023/12/11 02:42:05;;;;;;;26.13;5.15;;;;;;;11.17;85.04;99626.16;3605342;39;20064;-62
2023/12/11 02:44:31;;;;;;;31.90;5.40;;;;;;;11.13;85.87;99622.00;3608291;39;20057;-63
2023/12/11 02:46:57;;;;;;;26.00;5.28;;;;;;;11.14;85.45;99611.13;3607910;39;20111;-63
2023/12/11 02:49:22;;;;;;;21.35;4.80;;;;;;;11.16;85.38;99613.66;3610172;39;20353;-63
2023/12/11 02:51:48;;;;;;;27.00;4.88;;;;;;;11.15;85.36;99606.59;3608114;39;20094;-64
2023/12/11 02:54:14;;;;;;;22.20;4.55;;;;;;;11.15;85.74;99611.97;3610046;39;20082;-63
2023/12/11 02:56:40;;;;;;;23.75;4.53;;;;;;;11.16;85.36;99605.59;3605500;39;20047;-63
2023/12/11 02:59:06;;;;;;;21.58;4.47;;;;;;;11.08;85.61;99578.50;3608422;39;20055;-63
2023/12/11 03:01:32;;;;;;;27.00;5.57;;;;;;;11.14;85.68;99588.75;3606319;39;20410;-63
2023/12/11 03:03:57;;;;;;;22.40;4.07;;;;;;;11.07;85.53;99580.34;3606952;39;20107;-63
2023/12/11 03:06:23;;;;;;;28.80;4.82;;;;;;;11.05;86.35;99581.44;3607133;39;20375;-63
2023/12/11 03:08:49;;;;;;;23.50;4.57;;;;;;;11.06;86.27;99575.09;3606522;39;20079;-63
2023/12/11 03:11:14;;;;;;;26.38;4.85;;;;;;;11.06;86.52;99575.94;3609642;39;20069;-63
2023/12/11 03:13:40;;;;;;;22.23;4.68;;;;;;;10.99;86.40;99568.53;3607648;39;20047;-63
2023/12/11 03:16:06;;;;;;;26.08;5.00;;;;;;;10.97;86.56;99560.56;3606985;39;20546;-63
2023/12/11 03:18:32;;;;;;;28.35;5.35;;;;;;;10.93;87.12;99559.13;3609674;39;20051;-63
2023/12/11 03:20:58;;;;;;;22.85;4.43;;;;;;;10.99;87.26;99560.44;3608736;39;20139;-64
2023/12/11 03:23:24;;;;;;;24.10;4.95;;;;;;;10.95;86.52;99556.31;3607121;39;20073;-63
2023/12/11 03:25:49;;;;;;;26.20;4.85;;;;;;;10.97;86.92;99560.56;3608216;39;20319;-64
2023/12/11 03:28:15;;;;;;;19.65;4.82;;;;;;;10.98;86.74;99561.44;3606955;39;20093;-63
2023/12/11 03:30:41;;;;;;;26.67;5.00;;;;;;;10.96;86.99;99571.47;3608473;39;20295;-63
2023/12/11 03:33:07;;;;;;;24.90;4.78;;;;;;;10.93;86.58;99569.88;3608036;39;20054;-63
2023/12/11 03:35:32;;;;;;;23.50;4.50;;;;;;;10.88;86.74;99567.59;3609678;39;20051;-63
2023/12/11 03:37:58;;;;;;;21.65;5.13;;;;;;;10.87;86.28;99565.84;3609115;39;20067;-64
2023/12/11 03:40:23;;;;;;;22.80;4.63;;;;;;;10.92;86.23;99558.28;3609212;39;20370;-63
2023/12/11 03:42:49;;;;;;;24.85;4.72;;;;;;;10.90;85.78;99562.06;3606782;39;20415;-63
2023/12/11 03:45:15;;;;;;;24.23;5.78;;;;;;;10.91;85.66;99566.47;3606589;39;20056;-63
2023/12/11 03:47:40;;;;;;;20.35;4.35;;;;;;;10.88;85.82;99577.50;3606530;39;20069;-62
2023/12/11 03:50:07;;;;;;;19.60;4.07;;;;;;;10.97;85.47;99568.63;3606886;39;20628;-63
2023/12/11 03:52:32;;;;;;;17.98;3.63;;;;;;;10.92;86.43;99563.66;3607823;39;20112;-63
2023/12/11 03:54:58;;;;;;;21.73;3.95;;;;;;;10.91;86.32;99583.47;3607590;39;20059;-63
2023/12/11 03:57:24;;;;;;;24.83;4.25;;;;;;;10.88;87.21;99561.38;3606420;39;20058;-63
2023/12/11 03:59:49;;;;;;;23.13;4.28;;;;;;;10.86;87.84;99566.84;3606752;39;20110;-63
2023/12/11 04:02:15;;;;;;;21.80;4.43;;;;;;;10.88;87.55;99556.84;3608970;39;20307;-63
2023/12/11 04:04:41;;;;;;;17.38;3.55;;;;;;;10.88;87.60;99548.78;3606008;39;20368;-62
2023/12/11 04:07:06;;;;;;;23.20;3.67;;;;;;;10.80;87.35;99548.53;3605882;39;20055;-63
2023/12/11 04:09:32;;;;;;;22.45;4.40;;;;;;;10.79;87.75;99532.56;3606922;39;20071;-62
2023/12/11 04:11:58;;;;;;;20.38;4.07;;;;;;;10.90;88.67;99570.97;3608106;39;20344;-62
2023/12/11 04:14:23;;;;;;;20.83;3.83;;;;;;;10.87;89.07;99575.75;3610117;39;20395;-64
2023/12/11 04:16:49;;;;;;;27.13;4.57;;;;;;;10.82;90.61;99551.97;3605662;39;20047;-63
2023/12/11 04:19:15;;;;;;;24.45;4.60;;;;;;;10.79;92.09;99554.91;3607943;39;20392;-63
2023/12/11 04:21:41;;;;;;;26.35;4.53;;;;;;;10.75;92.77;99564.22;3607455;39;20084;-61
2023/12/11 04:24:06;;;;;;;23.45;5.15;;;;;;;10.69;93.75;99553.97;3608520;39;20047;-62
2023/12/11 04:26:32;;;;;;;19.35;3.83;;;;;;;10.66;94.10;99551.53;3610654;39;20058;-61
2023/12/11 04:28:58;;;;;;;22.92;4.43;;;;;;;10.61;94.32;99537.63;3610016;39;20055;-62
2023/12/11 04:31:24;;;;;;;25.38;4.82;;;;;;;10.57;95.11;99542.41;3608634;39;20302;-61
2023/12/11 04:33:50;;;;;;;21.38;4.25;;;;;;;10.38;95.49;99516.19;3608252;39;20071;-61
2023/12/11 04:36:16;;;;;;;25.85;4.80;;;;;;;10.54;95.90;99525.69;3608038;39;20338;-62
2023/12/11 04:38:42;;;;;;;24.13;5.00;;;;;;;10.53;96.29;99529.31;3607183;39;20111;-61
2023/12/11 04:41:07;;;;;;;24.50;4.05;;;;;;;10.50;95.82;99524.19;3608087;39;20060;-61
2023/12/11 04:43:33;;;;;;;19.48;4.47;;;;;;;10.53;95.40;99523.94;3609919;39;20095;-62
2023/12/11 04:45:59;;;;;;;28.45;4.88;;;;;;;10.52;96.23;99525.78;3603635;39;20099;-62
2023/12/11 04:48:25;;;;;;;27.45;5.20;;;;;;;10.49;95.77;99530.56;3607630;39;20053;-62
2023/12/11 04:50:51;;;;;;;24.63;4.85;;;;;;;10.47;96.53;99530.72;3606681;39;20059;-61
2023/12/11 04:53:16;;;;;;;23.45;4.88;;;;;;;10.45;96.52;99533.50;3610187;39;20103;-62
2023/12/11 04:55:42;;;;;;;25.48;4.90;;;;;;;10.44;96.58;99526.44;3606751;39;20075;-62
2023/12/11 04:58:08;;;;;;;19.50;4.03;;;;;;;10.51;95.98;99544.72;3608063;39;20115;-62
2023/12/11 05:00:33;;;;;;;20.00;4.72;;;;;;;10.51;95.99;99526.78;3606272;39;20588;-62
2023/12/11 05:02:59;;;;;;;22.30;5.75;;;;;;;10.51;97.27;99534.00;3606172;39;20055;-63
2023/12/11 05:05:25;;;;;;;26.38;5.57;;;;;;;10.49;97.61;99519.81;3609781;39;20058;-63
2023/12/11 05:07:50;;;;;;;17.77;4.93;;;;;;;10.50;97.41;99513.44;3610621;39;20066;-63
2023/12/11 05:10:16;;;;;;;30.83;7.63;;;;;;;10.49;98.24;99506.38;3609145;39;20060;-63
2023/12/11 05:12:41;;;;;;;25.55;5.20;;;;;;;10.45;98.23;99517.38;3608434;39;20121;-61
2023/12/11 05:15:08;;;;;;;29.27;4.70;;;;;;;10.45;98.60;99536.19;3609451;39;20063;-62
2023/12/11 05:17:33;;;;;;;25.67;4.30;;;;;;;10.45;98.82;99528.13;3609192;39;20055;-62
2023/12/11 05:19:59;;;;;;;22.42;4.63;;;;;;;10.51;98.51;99531.31;3609033;39;20447;-62
2023/12/11 05:22:25;;;;;;;24.17;4.55;;;;;;;10.52;98.57;99530.31;3608240;39;20062;-62
2023/12/11 05:24:51;;;;;;;23.55;4.22;;;;;;;10.54;98.25;99528.38;3606432;39;20047;-63
2023/12/11 05:27:16;;;;;;;23.00;4.55;;;;;;;10.52;97.93;99525.78;3608404;39;20038;-62
2023/12/11 05:29:42;;;;;;;30.10;5.15;;;;;;;10.53;97.61;99524.81;3608113;39;20062;-62
2023/12/11 05:32:10;;;;;;;27.85;5.38;;;;;;;10.58;97.85;99538.72;3609881;39;20078;-61
2023/12/11 05:34:36;;;;;;;21.40;4.20;;;;;;;10.57;97.31;99528.13;3607643;39;20128;-62
2023/12/11 05:37:02;;;;;;;26.63;5.90;;;;;;;10.57;96.94;99534.34;3604652;39;20051;-61
2023/12/11 05:39:28;;;;;;;20.63;4.78;;;;;;;10.56;96.92;99529.94;3608393;39;20062;-61
2023/12/11 05:41:53;;;;;;;30.55;5.45;;;;;;;10.57;97.27;99526.28;3606935;39;20047;-62
2023/12/11 05:44:19;;;;;;;19.35;4.63;;;;;;;10.57;96.51;99528.13;3610020;39;20077;-62
2023/12/11 05:46:44;;;;;;;27.77;5.63;;;;;;;10.58;96.21;99519.06;3608287;39;20065;-64
2023/12/11 05:49:10;;;;;;;25.10;5.47;;;;;;;10.59;96.59;99529.69;3609811;39;20043;-62
2023/12/11 05:51:36;;;;;;;24.83;4.55;;;;;;;10.61;95.77;99521.50;3606797;39;20051;-62
2023/12/11 05:54:02;;;;;;;22.65;5.40;;;;;;;10.62;96.07;99513.28;3607816;39;20043;-62
2023/12/11 05:56:28;;;;;;;28.25;5.50;;;;;;;10.64;96.04;99510.50;3608964;39;20262;-62
2023/12/11 05:58:54;;;;;;;27.23;4.47;;;;;;;10.64;95.69;99516.72;3607626;39;20091;-62
2023/12/11 06:01:20;;;;;;;20.42;3.90;;;;;;;10.63;95.20;99519.53;3609548;39;20050;-62
2023/12/11 06:03:45;;;;;;;31.48;4.95;;;;;;;10.64;95.42;99522.09;3607339;39;20059;-62
2023/12/11 06:06:16;;;;;;;22.02;4.72;;;;;;;10.60;95.30;99517.97;3605384;39;20047;-62
2023/12/11 06:08:43;;;;;;;24.35;4.57;;;;;;;10.62;95.28;99509.75;3608006;39;20407;-62
2023/12/11 06:11:09;;;;;;;19.35;4.40;;;;;;;10.61;95.20;99516.97;3609683;39;20399;-62
2023/12/11 06:13:35;;;;;;;20.42;4.15;;;;;;;10.63;94.33;99519.53;3609588;39;20085;-63
2023/12/11 06:16:00;;;;;;;17.73;4.10;;;;;;;10.63;94.15;99514.16;3609107;39;20415;-63
2023/12/11 06:18:26;;;;;;;27.30;5.15;;;;;;;10.61;94.52;99516.13;3607864;39;20383;-62
2023/12/11 06:20:52;;;;;;;25.40;4.30;;;;;;;10.63;94.41;99522.22;3605695;39;20091;-63
2023/12/11 06:23:17;;;;;;;19.67;4.78;;;;;;;10.63;94.51;99535.66;3606565;39;20054;-63
2023/12/11 06:25:43;;;;;;;19.10;4.18;;;;;;;10.59;94.17;99518.06;3608594;39;20050;-63
2023/12/11 06:28:09;;;;;;;26.35;5.13;;;;;;;10.58;94.78;99529.81;3607699;39;20055;-63
2023/12/11 06:30:35;;;;;;;24.05;5.28;;;;;;;10.60;94.92;99525.16;3608089;39;20059;-62
2023/12/11 06:33:00;;;;;;;22.48;5.38;;;;;;;10.60;95.31;99533.22;3605439;39;20562;-63
2023/12/11 06:35:26;;;;;;;22.50;5.28;;;;;;;10.57;95.43;99520.06;3607982;39;20389;-63
2023/12/11 06:37:51;;;;;;;22.75;4.65;;;;;;;10.55;94.87;99530.91;3604871;39;20073;-63
2023/12/11 06:40:17;;;;;;;22.27;4.72;;;;;;;10.41;94.83;99504.34;3608716;39;20070;-63
2023/12/11 06:42:43;;;;;;;26.15;4.78;;;;;;;10.63;93.94;99538.34;3605135;39;20342;-63
2023/12/11 06:45:10;;;;;;;22.10;5.05;;;;;;;10.56;93.90;99534.44;3607544;39;20075;-64
2023/12/11 06:47:37;;;;;;;25.98;5.18;;;;;;;10.61;94.05;99532.25;3605458;39;20336;-63
2023/12/11 06:50:03;;;;;;;24.05;4.80;;;;;;;10.61;93.64;99537.63;3603993;39;20071;-62
2023/12/11 06:52:29;;;;;;;23.40;4.47;;;;;;;10.62;93.25;99529.41;3609920;39;20050;-64
2023/12/11 06:54:55;;;;;;;25.35;4.57;;;;;;;10.61;93.05;99548.38;3608357;39;20066;-63
2023/12/11 06:57:21;;;;;;;18.55;4.60;;;;;;;10.63;92.34;99552.63;3606473;39;20059;-63
2023/12/11 06:59:47;;;;;;;21.77;4.35;;;;;;;10.63;92.00;99538.34;3606753;39;20414;-63
2023/12/11 07:02:13;;;;;;;18.73;3.80;;;;;;;10.66;91.77;99551.53;3608940;39;20062;-63
2023/12/11 07:04:41;;;;;;;23.60;3.97;;;;;;;10.69;91.07;99556.66;3609444;39;20318;-64
2023/12/11 07:07:07;;;;;;;20.73;3.97;;;;;;;10.62;90.63;99540.16;3605779;39;20063;-64
2023/12/11 07:09:33;;;;;;;25.98;4.25;;;;;;;9.97;90.33;99447.88;3608946;39;20112;-63
2023/12/11 07:11:59;;;;;;;24.20;4.43;;;;;;;10.61;90.50;99543.00;3604232;39;20124;-62
2023/12/11 07:14:25;;;;;;;21.15;4.00;;;;;;;10.72;89.86;99564.47;3609797;39;20458;-63
2023/12/11 07:16:52;;;;;;;18.63;4.13;;;;;;;10.74;89.38;99564.31;3605046;39;20054;-63
2023/12/11 07:19:19;;;;;;;21.35;3.83;;;;;;;10.74;89.24;99558.94;3600400;39;20056;-62
2023/12/11 07:21:45;;;;;;;19.60;5.35;;;;;;;10.60;88.92;99542.16;3596469;39;20077;-64
2023/12/11 07:24:11;;;;;;;15.07;3.67;;;;;;;10.77;88.07;99578.38;3605971;39;20067;-63
2023/12/11 07:26:37;;;;;;;15.00;3.58;;;;;;;10.59;88.46;99558.38;3607595;39;20058;-63
2023/12/11 07:29:04;;;;;;;18.10;3.97;;;;;;;10.61;88.45;99554.59;3608484;39;21699;-63
2023/12/11 07:31:30;;;;;;;21.48;5.00;;;;;;;10.62;89.09;99558.13;3607473;39;20066;-63
2023/12/11 07:33:56;;;;;;;16.58;5.00;;;;;;;10.73;89.54;99576.91;3609716;39;20081;-64
2023/12/11 07:36:24;;;;;;;19.63;3.88;;;;;;;10.74;89.01;99601.97;3608770;39;20676;-63
2023/12/11 07:38:49;;;;;;;16.27;3.90;;;;;;;10.71;89.63;99597.69;3609143;39;20383;-64
2023/12/11 07:41:23;;;;;;;21.02;4.32;;;;;;;10.66;89.99;99607.97;3611306;39;20059;-63
2023/12/11 07:43:49;;;;;;;17.13;3.53;;;;;;;10.69;90.83;99610.41;3610262;39;20042;-64
2023/12/11 07:46:21;;;;;;;21.42;4.28;;;;;;;10.64;91.50;99612.59;3611990;39;20051;-64
2023/12/11 07:48:48;;;;;;;16.67;3.65;;;;;;;10.51;92.24;99604.69;3609525;39;20091;-64
2023/12/11 07:51:26;;;;;;;15.90;3.22;;;;;;;10.40;92.40;99604.69;3609106;39;20392;-65
2023/12/11 07:53:54;;;;;;;18.27;3.67;;;;;;;10.51;93.11;99625.34;3606901;39;20092;-64
2023/12/11 07:56:24;;;;;;;20.10;4.05;;;;;;;10.47;92.97;99638.16;3611065;39;20047;-64
2023/12/11 07:58:51;;;;;;;17.08;3.15;;;;;;;10.27;93.85;99615.56;3610310;39;20484;-64
2023/12/11 08:01:18;;;;;;;19.30;3.40;;;;;;;9.63;93.58;99518.66;3610497;39;20387;-64
2023/12/11 08:03:44;;;;;;;17.17;3.50;;;;;;;10.35;94.58;99640.00;3608066;39;20071;-64
2023/12/11 08:06:10;;;;;;;19.80;3.63;;;;;;;10.38;94.74;99649.66;3610755;39;20074;-64
2023/12/11 08:08:45;;;;;;;17.00;4.00;;;;;;;10.36;94.26;99646.22;3607391;39;20095;-63
2023/12/11 08:11:18;;;;;;;16.35;3.72;;;;;;;10.36;93.86;99652.44;3606721;39;20433;-64
2023/12/11 08:13:44;;;;;;;16.60;3.17;;;;;;;10.33;94.03;99651.84;3609127;39;20547;-63
2023/12/11 08:16:13;;;;;;;15.82;3.10;;;;;;;10.36;94.03;99665.88;3612328;39;20321;-63
2023/12/11 08:18:41;;;;;;;12.88;3.33;;;;;;;10.38;94.73;99663.94;3599502;39;20054;-64
2023/12/11 08:21:06;;;;;;;17.05;3.05;;;;;;;10.41;93.53;99669.06;3601019;39;20326;-64
2023/12/11 08:23:33;;;;;;;13.02;3.20;;;;;;;10.40;93.87;99669.16;3607552;39;20059;-64
2023/12/11 08:25:59;;;;;;;17.88;2.97;;;;;;;10.45;92.40;99670.53;3607862;39;20080;-63
2023/12/11 08:28:25;;;;;;;14.82;3.17;;;;;;;10.51;92.49;99681.75;3606315;39;20058;-63
2023/12/11 08:30:50;;;;;;;16.25;3.00;;;;;;;10.54;91.21;99692.28;3600686;39;20063;-63
2023/12/11 08:33:16;;;;;;;18.63;3.33;;;;;;;10.62;89.83;99687.13;3609672;39;20427;-64
2023/12/11 08:35:42;;;;;;;12.75;3.03;;;;;;;10.67;89.17;99690.31;3612335;39;20046;-63
2023/12/11 08:38:07;;;;;;;13.13;2.80;;;;;;;10.58;87.82;99672.22;3606055;39;20051;-64
2023/12/11 08:40:33;;;;;;;14.05;2.67;;;;;;;10.79;86.75;99704.59;3602407;39;20467;-64
2023/12/11 08:42:59;;;;;;;15.55;3.13;;;;;;;10.74;86.26;99688.81;3608935;39;20597;-63
2023/12/11 08:45:25;;;;;;;14.88;3.45;;;;;;;10.85;85.98;99707.63;3606144;39;20054;-64
2023/12/11 08:47:50;;;;;;;19.02;3.00;;;;;;;10.91;85.87;99707.16;3606732;39;20042;-63
2023/12/11 08:50:16;;;;;;;16.95;3.45;;;;;;;10.95;85.02;99715.81;3604461;39;20099;-65
2023/12/11 08:52:44;;;;;;;15.77;3.45;;;;;;;10.97;85.47;99726.44;3607040;39;20306;-63
2023/12/11 08:55:10;;;;;;;15.10;3.25;;;;;;;10.98;85.35;99733.53;3606356;39;20163;-64
2023/12/11 08:57:36;;;;;;;12.73;3.00;;;;;;;10.98;85.75;99744.28;3608712;39;20055;-64
2023/12/11 09:00:05;;;;;;;9.32;2.80;;;;;;;10.95;85.96;99736.47;3605859;39;20095;-64
2023/12/11 09:02:31;;;;;;;16.35;3.00;;;;;;;10.93;86.44;99758.09;3604482;39;20062;-63
2023/12/11 09:04:56;;;;;;;17.45;2.90;;;;;;;10.89;86.41;99765.56;3607287;39;20063;-63
2023/12/11 09:07:22;;;;;;;16.13;3.13;;;;;;;10.70;87.29;99741.13;3603970;39;20078;-63
2023/12/11 09:09:48;;;;;;;19.35;3.55;;;;;;;10.78;88.74;99770.91;3606235;39;20049;-64
2023/12/11 09:12:14;;;;;;;23.02;3.63;;;;;;;10.77;89.37;99789.88;3605625;39;20057;-64
2023/12/11 09:14:39;;;;;;;13.43;3.05;;;;;;;10.68;91.11;99807.56;3605249;39;20369;-63
2023/12/11 09:17:05;;;;;;;16.83;3.55;;;;;;;10.55;92.13;99785.34;3605691;39;20135;-63
2023/12/11 09:19:32;;;;;;;18.17;3.63;;;;;;;10.48;93.47;99802.91;3605384;39;20058;-63
2023/12/11 09:21:57;;;;;;;17.65;3.33;;;;;;;10.39;94.60;99802.66;3606660;39;20434;-63
2023/12/11 09:24:23;;;;;;;16.02;3.63;;;;;;;10.11;95.03;99766.28;3604852;39;20067;-64
2023/12/11 09:26:49;;;;;;;11.40;3.22;;;;;;;10.33;94.54;99813.84;3605616;39;20055;-63
2023/12/11 09:29:15;;;;;;;14.85;3.33;;;;;;;10.33;95.31;99821.06;3604670;39;20495;-63
2023/12/11 09:31:40;;;;;;;13.63;3.20;;;;;;;10.33;94.69;99823.75;3606657;39;20059;-63
2023/12/11 09:34:06;;;;;;;13.38;2.55;;;;;;;10.31;94.39;99831.09;3603931;39;20396;-63
2023/12/11 09:36:32;;;;;;;10.38;3.00;;;;;;;10.27;93.69;99843.03;3607493;39;20085;-63
2023/12/11 09:38:58;;;;;;;12.45;2.00;;;;;;;10.32;92.80;99840.84;3603333;39;20044;-63
2023/12/11 09:41:33;;;;;;;8.93;2.50;;;;;;;10.33;92.83;99840.72;3603917;39;20095;-63
2023/12/11 09:44:01;;;;;;;12.98;2.75;;;;;;;10.37;93.07;99852.97;3608963;39;20051;-63
2023/12/11 09:46:32;;;;;;;10.10;2.47;;;;;;;10.43;92.31;99847.13;3607994;39;20055;-64
2023/12/11 09:48:58;;;;;;;11.30;2.28;;;;;;;10.50;92.28;99866.31;3604130;39;20047;-62
2023/12/11 09:51:24;;;;;;;12.77;3.05;;;;;;;10.52;91.86;99866.19;3606103;39;20100;-64
2023/12/11 09:53:53;;;;;;;10.00;2.58;;;;;;;10.58;91.49;99871.09;3606634;39;20112;-64
2023/12/11 09:56:18;;;;;;;10.07;2.42;;;;;;;10.57;91.54;99885.50;3608427;39;20050;-64
2023/12/11 09:58:46;;;;;;;12.18;3.00;;;;;;;10.65;91.54;99870.47;3608593;39;20061;-63
2023/12/11 10:01:13;;;;;;;14.23;2.55;;;;;;;10.76;92.06;99875.03;3608794;39;20079;-63
2023/12/11 10:03:39;;;;;;;8.55;2.53;;;;;;;10.80;91.30;99871.13;3608967;39;20411;-63
2023/12/11 10:06:05;;;;;;;12.02;2.67;;;;;;;10.95;90.48;99884.38;3602934;39;20059;-65
2023/12/11 10:08:43;;;;;;;14.35;2.67;;;;;;;11.08;90.28;99874.34;3608602;39;20038;-65
2023/12/11 10:11:14;;;;;;;12.02;3.05;;;;;;;11.19;90.42;99895.84;3606961;39;20050;-65
2023/12/11 10:13:41;;;;;;;12.60;2.75;;;;;;;11.24;89.42;99901.72;3606311;39;20096;-65
2023/12/11 10:16:31;;;;;;;13.20;2.70;;;;;;;11.28;89.29;99897.81;3603443;39;20054;-66
2023/12/11 10:18:58;;;;;;;12.93;2.90;;;;;;;11.36;88.93;99924.97;3607364;39;20056;-65
2023/12/11 10:21:25;;;;;;;10.38;2.70;;;;;;;11.42;87.88;99917.38;3605551;39;20067;-67
2023/12/11 10:24:06;;;;;;;11.20;2.28;;;;;;;11.35;86.68;99904.44;3604599;39;20518;-65
2023/12/11 10:26:37;;;;;;;9.77;2.25;;;;;;;10.93;86.71;99847.66;3607591;39;20065;-65
2023/12/11 10:29:21;;;;;;;11.68;2.78;;;;;;;11.36;86.50;99916.91;3606885;39;20612;-65
2023/12/11 10:31:48;;;;;;;6.57;2.20;;;;;;;11.38;86.34;99928.41;3606877;39;20062;-65
2023/12/11 10:34:14;;;;;;;7.00;2.30;;;;;;;11.18;85.22;99904.06;3609834;39;20382;-65
2023/12/11 10:36:51;;;;;;;7.68;2.00;;;;;;;11.29;85.72;99947.97;3611400;39;20124;-65
2023/12/11 10:39:21;;;;;;;12.90;2.67;;;;;;;11.24;85.99;99939.41;3612496;39;20046;-65
2023/12/11 10:41:46;;;;;;;8.15;2.33;;;;;;;11.23;85.88;99959.22;3609153;39;20043;-65
2023/12/11 10:44:26;;;;;;;7.55;2.20;;;;;;;11.20;86.05;99955.91;3607818;39;20065;-64
2023/12/11 10:46:57;;;;;;;10.35;2.63;;;;;;;11.17;86.42;99953.47;3607426;39;20391;-64
2023/12/11 10:49:24;;;;;;;9.95;2.22;;;;;;;11.20;87.09;99953.22;3607150;39;20061;-64
2023/12/11 10:51:50;;;;;;;12.90;2.72;;;;;;;11.22;86.92;99965.56;3607207;39;20205;-64
2023/12/11 10:54:17;;;;;;;9.00;2.05;;;;;;;11.26;87.08;99947.31;3607108;39;20051;-64
2023/12/11 10:56:47;;;;;;;11.38;2.08;;;;;;;10.99;86.53;99913.56;3607892;39;20051;-64
2023/12/11 10:59:13;;;;;;;16.13;2.92;;;;;;;11.39;86.18;99973.16;3604800;39;20058;-64
2023/12/11 11:01:44;;;;;;;10.75;2.95;;;;;;;11.38;85.59;99968.78;3606050;39;20055;-64
2023/12/11 11:04:14;;;;;;;9.25;2.17;;;;;;;11.47;85.21;99987.84;3606591;39;20080;-64
2023/12/11 11:07:00;;;;;;;10.60;2.55;;;;;;;11.53;85.12;99985.53;3607897;39;20448;-64
2023/12/11 11:10:10;;;;;;;9.52;2.30;;;;;;;11.38;83.99;99952.63;3607844;39;20058;-64
2023/12/11 11:12:43;;;;;;;15.07;2.20;;;;;;;11.65;83.26;99989.09;3607443;39;20062;-64
2023/12/11 11:15:12;;;;;;;8.98;1.90;;;;;;;11.64;82.81;99984.69;3605053;39;20055;-64
2023/12/11 11:17:58;;;;;;;9.77;2.33;;;;;;;11.71;82.24;99998.50;3607560;39;20054;-64
2023/12/11 11:20:24;;;;;;;6.50;1.73;;;;;;;11.73;81.91;100002.78;3608560;39;20565;-64
2023/12/11 11:22:50;;;;;;;8.18;1.95;;;;;;;11.71;81.14;100002.06;3609473;39;20395;-63
2023/12/11 11:25:31;;;;;;;7.07;2.03;;;;;;;11.65;80.66;100016.00;3600093;39;20051;-64